Time;durP1;ratioP1;P1;durP2;ratioP2;P2;SDS_P1;SDS_P2;PMS_P1;PMS_P2;Temp;Humidity;BMP_temperature;BMP_pressure;BME280_temperature;BME280_humidity;BME280_pressure;Samples;Min_cycle;Max_cycle;Signal;HPM_P1;HPM_P2
2021/05/31 00:00:07;;;;;;;12.15;7.10;;;;;;;18.29;44.92;102356.25;4947880;28;124278;-68
2021/05/31 00:02:34;;;;;;;10.00;6.72;;;;;;;18.23;44.92;102362.81;4947132;28;119960;-68
2021/05/31 00:05:03;;;;;;;9.68;6.82;;;;;;;18.20;44.96;102360.28;4949556;28;117970;-68
2021/05/31 00:07:30;;;;;;;13.98;7.47;;;;;;;18.18;45.13;102358.66;4948506;28;124089;-68
2021/05/31 00:09:57;;;;;;;8.57;7.15;;;;;;;18.14;45.18;102357.06;4946563;28;123957;-70
2021/05/31 00:12:24;;;;;;;11.05;7.30;;;;;;;18.11;45.28;102354.56;4945222;28;119230;-69
2021/05/31 00:14:52;;;;;;;11.95;7.13;;;;;;;18.05;45.51;102353.91;4948638;28;119309;-69
2021/05/31 00:17:19;;;;;;;12.77;7.32;;;;;;;18.01;45.54;102355.03;4948320;28;124231;-69
2021/05/31 00:19:47;;;;;;;11.52;7.55;;;;;;;17.98;45.64;102357.88;4948212;28;124622;-68
2021/05/31 00:22:14;;;;;;;11.60;7.43;;;;;;;17.93;45.86;102349.19;4949025;28;121069;-70
2021/05/31 00:24:41;;;;;;;15.40;7.47;;;;;;;17.91;46.00;102351.06;4947845;28;120598;-68
2021/05/31 00:27:08;;;;;;;12.90;7.97;;;;;;;17.86;45.98;102342.44;4948652;28;124105;-69
2021/05/31 00:29:35;;;;;;;12.50;7.68;;;;;;;17.84;46.18;102349.66;4950195;28;123879;-69
2021/05/31 00:32:03;;;;;;;14.18;8.27;;;;;;;17.81;46.38;102339.09;4947402;28;119378;-69
2021/05/31 00:34:30;;;;;;;10.68;7.75;;;;;;;17.79;46.22;102347.19;4947384;28;119043;-69
2021/05/31 00:36:57;;;;;;;12.00;7.63;;;;;;;17.76;46.35;102341.97;4948044;28;124147;-69
2021/05/31 00:39:25;;;;;;;10.48;7.45;;;;;;;17.73;46.24;102341.31;4949574;28;124329;-69
2021/05/31 00:41:53;;;;;;;10.88;7.82;;;;;;;17.71;46.49;102344.91;4947595;28;119642;-69
2021/05/31 00:44:22;;;;;;;13.38;8.88;;;;;;;17.67;46.83;102343.34;4944757;28;119143;-68
2021/05/31 00:46:50;;;;;;;15.77;8.73;;;;;;;17.62;46.95;102345.38;4947893;28;123990;-70
2021/05/31 00:49:22;;;;;;;12.10;8.55;;;;;;;17.58;46.84;102340.25;4944959;28;123954;-68
2021/05/31 00:51:50;;;;;;;14.35;9.13;;;;;;;17.52;47.08;102349.47;4944803;28;118932;-68
2021/05/31 00:54:19;;;;;;;13.73;8.88;;;;;;;17.48;47.22;102348.75;4946949;28;119052;-70
2021/05/31 00:56:47;;;;;;;11.48;9.10;;;;;;;17.45;47.34;102348.03;4963945;28;123107;-70
2021/05/31 00:59:15;;;;;;;12.57;9.55;;;;;;;17.40;47.40;102344.72;4946663;28;123989;-69
2021/05/31 01:01:42;;;;;;;15.18;10.20;;;;;;;17.37;47.45;102350.25;4947105;28;119125;-70
2021/05/31 01:04:10;;;;;;;14.80;9.20;;;;;;;17.31;47.56;102344.25;4949554;28;119845;-69
2021/05/31 01:06:43;;;;;;;14.00;9.55;;;;;;;17.26;47.73;102348.94;4947238;28;124118;-70
2021/05/31 01:09:17;;;;;;;13.52;9.15;;;;;;;17.22;47.94;102336.66;4948851;28;124009;-70
2021/05/31 01:11:55;;;;;;;14.07;9.30;;;;;;;17.20;47.84;102343.91;4946266;28;120320;-68
2021/05/31 01:14:32;;;;;;;15.50;10.27;;;;;;;17.17;48.33;102343.19;4946260;28;120315;-69
2021/05/31 01:17:18;;;;;;;17.00;10.95;;;;;;;17.12;48.23;102340.72;4947648;28;123101;-69
2021/05/31 01:19:51;;;;;;;16.67;10.07;;;;;;;17.08;48.32;102349.84;4947661;28;124212;-69
2021/05/31 01:22:24;;;;;;;15.23;10.73;;;;;;;17.03;48.55;102351.91;4945365;28;119471;-68
2021/05/31 01:24:55;;;;;;;15.43;10.85;;;;;;;16.99;48.66;102350.28;4946953;28;119183;-69
2021/05/31 01:27:22;;;;;;;15.52;11.18;;;;;;;16.93;48.48;102347.00;4945736;28;124391;-70
2021/05/31 01:29:58;;;;;;;15.95;11.40;;;;;;;16.87;48.86;102344.56;4947099;28;124043;-68
2021/05/31 01:32:41;;;;;;;16.25;11.65;;;;;;;16.84;49.17;102342.06;4942622;28;119177;-68
2021/05/31 01:35:15;;;;;;;19.60;11.20;;;;;;;16.80;49.33;102344.91;4948080;28;118834;-68
2021/05/31 01:37:44;;;;;;;18.30;11.87;;;;;;;16.77;49.34;102345.94;4946935;28;124127;-68
2021/05/31 01:40:16;;;;;;;18.35;11.80;;;;;;;16.74;49.48;102343.38;4943871;28;123794;-69
2021/05/31 01:42:43;;;;;;;20.27;13.20;;;;;;;16.72;49.91;102342.59;4946032;28;120036;-70
2021/05/31 01:45:11;;;;;;;18.63;12.48;;;;;;;16.69;49.71;102345.44;4946388;28;119465;-68
2021/05/31 01:47:41;;;;;;;18.02;12.15;;;;;;;16.69;49.73;102340.09;4947467;28;124824;-70
2021/05/31 01:50:10;;;;;;;18.70;12.25;;;;;;;16.68;49.88;102347.22;4947869;28;124031;-69
2021/05/31 01:52:39;;;;;;;17.38;11.95;;;;;;;16.67;50.07;102345.50;4948479;28;119131;-70
2021/05/31 01:55:09;;;;;;;19.60;12.68;;;;;;;16.66;50.21;102337.53;4946471;28;119844;-68
2021/05/31 01:57:37;;;;;;;19.40;12.73;;;;;;;16.66;50.18;102342.91;4947152;28;124168;-69
2021/05/31 02:00:06;;;;;;;21.00;12.88;;;;;;;16.65;50.28;102335.78;4946333;28;124393;-69
2021/05/31 02:02:48;;;;;;;20.45;13.57;;;;;;;16.63;50.20;102330.53;4945688;28;121254;-69
2021/05/31 02:05:16;;;;;;;20.33;13.40;;;;;;;16.62;50.18;102333.28;4967246;23;120151;-68
2021/05/31 02:07:43;;;;;;;18.42;12.85;;;;;;;16.59;50.08;102336.94;4946969;28;123958;-68
2021/05/31 02:10:13;;;;;;;19.48;13.85;;;;;;;16.58;50.35;102342.41;4950129;28;123811;-68
2021/05/31 02:12:54;;;;;;;21.55;14.05;;;;;;;16.55;50.44;102336.22;4948522;28;120063;-68
2021/05/31 02:15:32;;;;;;;20.52;13.90;;;;;;;16.53;50.50;102337.25;4930312;28;118968;-68
2021/05/31 02:18:04;;;;;;;22.23;13.90;;;;;;;16.50;50.63;102338.25;4925899;28;125682;-68
2021/05/31 02:20:33;;;;;;;20.65;13.60;;;;;;;16.49;50.47;102341.00;4929429;28;124007;-68
2021/05/31 02:23:04;;;;;;;19.38;14.00;;;;;;;16.46;50.71;102336.69;4929378;28;117900;-68
2021/05/31 02:25:31;;;;;;;20.33;14.13;;;;;;;16.45;50.85;102340.28;4930579;28;119326;-68
2021/05/31 02:27:59;;;;;;;22.58;14.50;;;;;;;16.42;50.95;102332.38;4929535;28;124344;-68
2021/05/31 02:30:27;;;;;;;20.60;14.45;;;;;;;16.40;51.16;102336.94;4930620;28;124427;-68
2021/05/31 02:33:03;;;;;;;25.75;15.48;;;;;;;16.35;51.21;102333.63;4930685;28;119201;-68
2021/05/31 02:35:35;;;;;;;23.17;14.02;;;;;;;16.31;51.42;102337.34;4934220;28;118636;-68
2021/05/31 02:38:03;;;;;;;20.98;14.60;;;;;;;16.27;51.43;102336.63;4929866;28;124324;-68
2021/05/31 02:40:31;;;;;;;19.75;14.25;;;;;;;16.25;51.37;102334.97;4929153;28;122905;-68
2021/05/31 02:43:04;;;;;;;21.77;14.68;;;;;;;16.22;51.68;102338.66;4929033;28;118456;-68
2021/05/31 02:45:32;;;;;;;21.52;15.23;;;;;;;16.21;51.68;102336.91;4929195;28;119254;-68
2021/05/31 02:48:00;;;;;;;24.60;15.88;;;;;;;16.18;51.64;102338.84;4930328;28;124494;-68
2021/05/31 02:50:29;;;;;;;24.40;15.68;;;;;;;16.13;51.70;102337.25;4930485;28;123668;-68
2021/05/31 02:52:57;;;;;;;24.90;16.25;;;;;;;16.13;52.03;102339.91;4929894;28;120926;-68
2021/05/31 02:55:27;;;;;;;23.52;14.98;;;;;;;16.12;51.66;102342.66;4930574;28;119958;-68
2021/05/31 02:57:55;;;;;;;26.65;15.95;;;;;;;16.10;52.23;102334.69;4930026;28;123884;-68
2021/05/31 03:00:26;;;;;;;22.38;16.00;;;;;;;16.08;52.10;102331.22;4932575;28;96774;-68
2021/05/31 03:02:54;;;;;;;24.00;16.63;;;;;;;16.07;52.08;102337.53;4928908;28;121744;-68
2021/05/31 03:05:28;;;;;;;25.48;15.68;;;;;;;16.04;52.31;102340.31;4926765;28;119201;-68
2021/05/31 03:07:59;;;;;;;26.23;16.30;;;;;;;16.00;52.34;102338.72;4927344;28;123918;-68
2021/05/31 03:10:27;;;;;;;23.10;15.20;;;;;;;16.00;52.27;102338.72;4927645;28;124107;-68
2021/05/31 03:12:55;;;;;;;24.40;16.70;;;;;;;15.94;52.42;102333.66;4928948;28;119341;-68
2021/05/31 03:15:22;;;;;;;25.85;16.85;;;;;;;15.93;52.64;102337.25;4926247;28;119761;-68
2021/05/31 03:17:51;;;;;;;24.52;16.63;;;;;;;15.92;52.40;102338.19;4928536;28;123887;-68
2021/05/31 03:20:20;;;;;;;23.33;17.13;;;;;;;15.88;52.68;102340.13;4927811;28;124166;-68
2021/05/31 03:22:48;;;;;;;25.58;17.20;;;;;;;15.86;52.57;102346.47;4927186;28;119277;-68
2021/05/31 03:25:15;;;;;;;24.40;17.52;;;;;;;15.83;52.75;102342.13;4943674;28;118542;-68
2021/05/31 03:27:43;;;;;;;28.90;17.23;;;;;;;15.82;52.86;102344.88;4924679;28;126378;-68
2021/05/31 03:30:13;;;;;;;26.20;16.98;;;;;;;15.80;53.09;102336.91;4912946;28;124052;-68
2021/05/31 03:32:40;;;;;;;26.25;17.85;;;;;;;15.79;53.11;102345.88;4930077;28;119151;-68
2021/05/31 03:35:09;;;;;;;25.13;17.80;;;;;;;15.76;53.17;102346.88;4930314;28;118478;-68
2021/05/31 03:37:37;;;;;;;24.20;17.73;;;;;;;15.75;53.06;102344.28;4929416;28;123114;-68
2021/05/31 03:40:07;;;;;;;30.38;18.67;;;;;;;15.73;53.30;102341.66;4928139;28;123091;-68
2021/05/31 03:42:34;;;;;;;26.13;17.58;;;;;;;15.72;53.26;102345.22;4928240;28;120462;-68
2021/05/31 03:45:03;;;;;;;25.25;18.00;;;;;;;15.72;53.52;102345.22;4929691;28;119216;-69
2021/05/31 03:47:30;;;;;;;25.63;17.90;;;;;;;15.71;53.48;102348.84;4928820;28;124080;-68
2021/05/31 03:49:57;;;;;;;28.05;18.33;;;;;;;15.70;53.74;102347.09;4928009;28;123045;-68
2021/05/31 03:52:24;;;;;;;29.02;19.23;;;;;;;15.69;53.72;102345.38;4929759;28;119729;-68
2021/05/31 03:54:51;;;;;;;25.63;17.85;;;;;;;15.68;53.92;102338.28;4929653;28;119234;-68
2021/05/31 03:57:18;;;;;;;25.58;18.58;;;;;;;15.67;53.79;102344.56;4943998;28;123167;-68
2021/05/31 03:59:48;;;;;;;28.75;17.58;;;;;;;15.68;53.83;102343.63;4928180;28;123854;-68
2021/05/31 04:02:15;;;;;;;25.98;17.50;;;;;;;15.70;53.87;102344.41;4928516;28;117656;-68
2021/05/31 04:04:44;;;;;;;25.80;18.08;;;;;;;15.71;54.04;102346.16;4929089;28;119125;-68
2021/05/31 04:12:48;;;;;;;28.92;18.15;;;;;;;15.70;53.65;102344.41;4925957;28;119307;-69
2021/05/31 04:15:15;;;;;;;25.48;18.05;;;;;;;15.70;53.91;102347.09;4929069;28;119017;-69
2021/05/31 04:17:42;;;;;;;29.10;18.95;;;;;;;15.70;54.22;102347.09;4926533;28;123537;-69
2021/05/31 04:20:11;;;;;;;29.48;18.08;;;;;;;15.70;54.06;102355.09;4928798;28;123873;-69
2021/05/31 04:22:38;;;;;;;28.05;18.75;;;;;;;15.71;54.36;102343.50;4928105;28;119759;-69
2021/05/31 04:25:07;;;;;;;27.55;17.92;;;;;;;15.71;54.40;102343.50;4917382;28;118464;-69
2021/05/31 04:27:34;;;;;;;28.92;18.77;;;;;;;15.72;54.53;102345.22;4928914;28;124777;-69
2021/05/31 04:30:01;;;;;;;27.35;18.25;;;;;;;15.72;54.71;102347.88;4908948;28;123052;-69
2021/05/31 04:32:28;;;;;;;28.25;18.77;;;;;;;15.72;54.71;102339.88;4928343;28;120605;-69
2021/05/31 04:34:55;;;;;;;25.58;18.92;;;;;;;15.73;54.58;102347.00;4929080;28;119812;-69
2021/05/31 04:37:23;;;;;;;28.20;19.17;;;;;;;15.75;54.70;102339.78;4928447;28;123536;-68
2021/05/31 04:39:50;;;;;;;31.05;19.88;;;;;;;15.77;54.73;102332.56;4928972;28;123631;-68
2021/05/31 04:42:17;;;;;;;27.23;18.95;;;;;;;15.79;54.91;102334.31;4928819;28;119124;-68
2021/05/31 04:44:44;;;;;;;27.58;18.65;;;;;;;15.82;55.43;102339.53;4927709;28;117535;-68
2021/05/31 04:47:11;;;;;;;27.10;19.13;;;;;;;15.85;55.21;102334.06;4928766;28;124074;-68
2021/05/31 04:49:38;;;;;;;26.50;18.88;;;;;;;15.89;55.42;102341.00;4928479;28;124624;-68
2021/05/31 04:52:05;;;;;;;32.10;19.55;;;;;;;15.93;55.62;102337.25;4929338;28;119576;-69
2021/05/31 04:54:32;;;;;;;28.17;19.75;;;;;;;15.99;55.54;102334.31;4929067;28;121779;-69
2021/05/31 04:56:59;;;;;;;28.50;19.35;;;;;;;16.03;55.59;102333.25;4927966;28;123865;-68
2021/05/31 04:59:26;;;;;;;24.50;19.33;;;;;;;16.09;55.82;102338.31;4928559;28;123946;-69
2021/05/31 05:01:53;;;;;;;28.27;19.35;;;;;;;16.13;55.90;102334.56;4928724;28;119410;-69
2021/05/31 05:04:20;;;;;;;26.83;18.98;;;;;;;16.19;55.85;102343.25;4926355;28;118319;-69
2021/05/31 05:06:48;;;;;;;27.80;18.30;;;;;;;16.25;55.93;102337.63;4910925;28;123113;-69
2021/05/31 05:09:14;;;;;;;24.85;18.17;;;;;;;16.30;56.12;102332.94;4927035;28;123683;-69
2021/05/31 05:11:42;;;;;;;26.98;19.00;;;;;;;16.37;55.81;102334.41;4927241;28;119934;-69
2021/05/31 05:14:09;;;;;;;28.02;19.38;;;;;;;16.41;55.98;102327.97;4927242;28;117760;-69
2021/05/31 05:16:36;;;;;;;27.77;19.20;;;;;;;16.46;55.86;102336.69;4928159;28;123794;-69
2021/05/31 05:19:03;;;;;;;27.88;19.08;;;;;;;16.53;55.84;102330.06;4940163;28;122961;-69
2021/05/31 05:21:30;;;;;;;24.27;18.65;;;;;;;16.58;56.03;102337.03;4910702;28;119445;-69
2021/05/31 05:23:57;;;;;;;26.65;18.55;;;;;;;16.63;55.77;102332.31;4928426;28;120371;-69
2021/05/31 05:26:24;;;;;;;31.85;18.58;;;;;;;16.67;55.65;102329.44;4928615;28;124165;-69
2021/05/31 05:28:51;;;;;;;25.38;19.20;;;;;;;16.72;55.68;102332.75;4928014;28;123918;-69
2021/05/31 05:31:18;;;;;;;26.02;18.63;;;;;;;16.78;55.51;102333.41;4928366;28;119284;-69
2021/05/31 05:33:45;;;;;;;28.77;18.27;;;;;;;16.82;55.64;102327.91;4927279;28;119329;-69
2021/05/31 05:36:22;;;;;;;27.85;18.38;;;;;;;16.88;55.78;102324.91;4927196;28;124716;-69
2021/05/31 05:39:05;;;;;;;30.88;19.00;;;;;;;16.97;55.34;102330.75;4941864;28;124337;-69
2021/05/31 05:41:39;;;;;;;28.05;18.65;;;;;;;17.06;55.40;102330.31;4925279;28;120091;-69
2021/05/31 05:46:50;;;;;;;27.02;17.48;;;;;;;17.20;55.23;102322.50;4929426;28;123747;-67
2021/05/31 05:49:17;;;;;;;25.77;18.23;;;;;;;17.27;55.13;102321.25;4929778;28;124584;-70
2021/05/31 05:51:44;;;;;;;24.42;18.27;;;;;;;17.36;55.12;102321.72;4919663;28;118074;-68
2021/05/31 05:54:11;;;;;;;27.67;18.05;;;;;;;17.44;54.96;102314.16;4929808;28;118440;-68
2021/05/31 05:56:38;;;;;;;25.27;17.20;;;;;;;17.52;54.84;102323.56;4931501;28;124830;-67
2021/05/31 05:59:05;;;;;;;26.65;18.35;;;;;;;17.61;54.78;102316.88;4930862;28;124200;-68
2021/05/31 06:01:32;;;;;;;25.20;17.83;;;;;;;17.71;54.42;102322.63;4931627;28;119478;-68
2021/05/31 06:04:00;;;;;;;22.13;17.52;;;;;;;17.82;54.60;102319.34;4945820;28;118274;-68
2021/05/31 06:06:27;;;;;;;22.00;17.27;;;;;;;17.91;54.39;102318.91;4929077;28;124285;-68
2021/05/31 06:08:54;;;;;;;23.50;17.10;;;;;;;18.02;54.38;102321.91;4930997;28;124149;-68
2021/05/31 06:11:21;;;;;;;25.55;17.45;;;;;;;18.12;54.23;102321.41;4930835;28;120872;-68
2021/05/31 06:13:51;;;;;;;25.40;17.10;;;;;;;18.23;53.70;102319.03;4931383;28;120403;-68
2021/05/31 06:16:19;;;;;;;25.52;17.85;;;;;;;18.32;53.30;102329.25;4930868;28;123995;-68
2021/05/31 06:18:47;;;;;;;25.85;16.92;;;;;;;18.43;53.55;102318.81;4928662;28;123923;-68
2021/05/31 06:21:14;;;;;;;25.05;16.98;;;;;;;18.58;53.63;102318.94;4930067;28;118408;-69
2021/05/31 06:23:41;;;;;;;26.13;16.77;;;;;;;18.74;52.99;102322.50;4930690;28;118115;-69
2021/05/31 06:26:08;;;;;;;25.38;17.00;;;;;;;18.86;52.69;102319.13;4932289;28;124351;-69
2021/05/31 06:28:35;;;;;;;25.30;16.25;;;;;;;18.99;52.31;102318.47;4929916;28;122732;-70
2021/05/31 06:31:02;;;;;;;26.73;17.00;;;;;;;19.10;52.19;102321.41;4931357;28;120088;-70
2021/05/31 06:33:30;;;;;;;22.85;16.20;;;;;;;19.20;52.11;102322.59;4929960;28;118944;-70
2021/05/31 06:35:59;;;;;;;23.25;16.20;;;;;;;19.32;51.88;102320.13;4938092;28;123469;-69
2021/05/31 06:38:26;;;;;;;19.77;16.33;;;;;;;19.42;51.51;102310.56;4929565;28;123950;-69
2021/05/31 06:40:53;;;;;;;24.25;16.33;;;;;;;19.53;51.32;102318.00;4928446;28;120313;-69
2021/05/31 06:43:20;;;;;;;23.60;17.27;;;;;;;19.61;51.11;102315.75;4938069;28;118253;-69
2021/05/31 06:45:47;;;;;;;23.83;16.02;;;;;;;19.73;51.11;102316.84;4930297;28;124396;-69
2021/05/31 06:48:14;;;;;;;21.77;15.30;;;;;;;19.85;50.90;102308.03;4931884;28;125572;-70
2021/05/31 06:50:43;;;;;;;22.65;16.27;;;;;;;19.97;50.88;102307.28;4931632;28;119204;-68
2021/05/31 06:53:10;;;;;;;26.55;15.88;;;;;;;20.10;50.94;102311.91;4928899;28;119187;-69
2021/05/31 06:55:37;;;;;;;21.17;15.55;;;;;;;20.24;50.75;102306.53;4930259;28;124549;-69
2021/05/31 06:58:04;;;;;;;25.48;16.42;;;;;;;20.40;50.81;102304.63;4929449;28;124058;-68
2021/05/31 07:00:32;;;;;;;22.50;15.00;;;;;;;20.59;50.18;102303.44;4929615;28;119962;-69
2021/05/31 07:02:59;;;;;;;24.52;16.05;;;;;;;20.73;49.75;102295.34;4928537;28;119998;-68
2021/05/31 07:05:26;;;;;;;22.42;15.10;;;;;;;20.88;49.54;102300.72;4930331;28;124374;-69
2021/05/31 07:07:53;;;;;;;18.08;14.68;;;;;;;21.00;49.38;102299.88;4927659;28;123683;-69
2021/05/31 07:10:24;;;;;;;20.33;14.43;;;;;;;21.14;49.01;102294.47;4944004;28;119289;-69
2021/05/31 07:12:51;;;;;;;24.50;15.48;;;;;;;21.31;48.89;102295.16;4929498;28;120257;-69
2021/05/31 07:15:20;;;;;;;23.25;14.60;;;;;;;21.46;48.35;102294.16;4927167;28;123772;-68
2021/05/31 07:17:48;;;;;;;19.10;13.93;;;;;;;21.62;48.20;102293.09;4911029;28;123725;-70
2021/05/31 07:20:19;;;;;;;20.67;13.88;;;;;;;21.74;48.09;102293.13;4928590;28;119913;-69
2021/05/31 07:22:46;;;;;;;20.30;13.10;;;;;;;21.89;48.16;102285.78;4930123;28;118859;-69
2021/05/31 07:25:16;;;;;;;18.38;13.15;;;;;;;22.07;47.38;102282.75;4929853;28;124634;-69
2021/05/31 07:27:44;;;;;;;19.55;13.20;;;;;;;22.18;46.55;102288.25;4930028;28;123828;-69
2021/05/31 07:30:12;;;;;;;19.20;13.50;;;;;;;22.25;46.49;102286.88;4930167;28;119122;-69
2021/05/31 07:32:39;;;;;;;17.60;12.85;;;;;;;22.34;46.54;102286.22;4943358;28;118133;-69
2021/05/31 07:35:08;;;;;;;20.38;13.18;;;;;;;22.48;46.00;102279.81;4943110;28;123428;-69
2021/05/31 07:37:36;;;;;;;21.30;13.70;;;;;;;22.61;45.85;102276.22;4929690;28;124570;-69
2021/05/31 07:40:09;;;;;;;19.67;13.48;;;;;;;22.73;45.79;102276.19;4929139;28;119400;-69
2021/05/31 07:42:37;;;;;;;18.70;12.60;;;;;;;22.86;45.60;102275.28;4944607;28;118577;-69
2021/05/31 07:45:06;;;;;;;21.42;12.95;;;;;;;22.97;45.28;102282.59;4927449;28;123601;-70
2021/05/31 07:47:33;;;;;;;18.20;13.15;;;;;;;23.06;44.70;102277.38;4927070;28;123556;-70
2021/05/31 07:50:00;;;;;;;18.70;13.65;;;;;;;23.15;45.16;102280.34;4911247;28;119209;-69
2021/05/31 07:52:28;;;;;;;18.30;12.82;;;;;;;23.26;44.67;102288.50;4929427;28;120705;-69
2021/05/31 07:54:56;;;;;;;17.92;12.68;;;;;;;23.34;44.84;102275.28;4938765;28;122943;-69
2021/05/31 07:57:25;;;;;;;16.08;12.18;;;;;;;23.47;44.32;102276.06;4925127;28;123860;-69
2021/05/31 07:59:53;;;;;;;17.63;11.68;;;;;;;23.62;44.34;102273.13;4930288;28;119294;-69
2021/05/31 08:02:23;;;;;;;16.35;12.15;;;;;;;23.76;43.56;102270.22;4927666;28;120532;-70
2021/05/31 08:04:51;;;;;;;17.70;11.70;;;;;;;23.87;43.54;102272.97;4959195;23;122842;-64
2021/05/31 08:07:18;;;;;;;18.85;12.18;;;;;;;23.99;43.05;102275.69;4946973;28;123866;-65
2021/05/31 08:09:47;;;;;;;18.00;11.80;;;;;;;24.07;43.05;102270.50;4945904;28;119200;-66
2021/05/31 08:12:15;;;;;;;21.73;12.68;;;;;;;24.16;42.79;102272.50;4951421;28;118870;-68
2021/05/31 08:14:42;;;;;;;15.45;11.73;;;;;;;24.23;42.65;102276.44;4949448;28;124363;-68
2021/05/31 08:17:10;;;;;;;19.02;12.25;;;;;;;24.32;42.50;102273.97;4948148;28;124708;-66
2021/05/31 08:19:37;;;;;;;18.23;12.40;;;;;;;24.44;42.24;102275.69;4950338;28;119292;-66
2021/05/31 08:22:06;;;;;;;18.65;12.63;;;;;;;24.51;42.20;102266.06;4950055;28;119301;-66
2021/05/31 08:24:33;;;;;;;18.45;11.55;;;;;;;24.59;41.29;102274.47;4935044;28;124408;-66
2021/05/31 08:27:00;;;;;;;17.30;10.73;;;;;;;24.61;40.84;102272.47;4948507;28;123728;-66
2021/05/31 08:29:27;;;;;;;15.93;10.65;;;;;;;24.63;40.60;102267.78;4948464;28;119741;-66
2021/05/31 08:31:56;;;;;;;17.15;10.85;;;;;;;24.70;40.98;102270.03;4950218;28;119293;-67
2021/05/31 08:34:25;;;;;;;17.13;10.90;;;;;;;24.78;40.80;102267.53;4948459;28;123871;-68
2021/05/31 08:36:52;;;;;;;14.75;10.10;;;;;;;24.88;41.22;102260.34;4950528;28;123978;-68
2021/05/31 08:39:19;;;;;;;17.38;10.57;;;;;;;24.99;41.15;102259.44;4948797;28;120037;-68
2021/05/31 08:41:47;;;;;;;15.27;10.48;;;;;;;25.10;40.65;102256.69;4949449;28;120360;-67
2021/05/31 08:44:14;;;;;;;16.95;11.60;;;;;;;25.20;40.26;102262.19;4949995;28;124730;-67
2021/05/31 08:46:41;;;;;;;14.32;10.75;;;;;;;25.24;40.92;102252.81;4948512;28;124251;-66
2021/05/31 08:49:09;;;;;;;13.13;9.10;;;;;;;25.34;40.00;102248.34;4947712;28;119284;-66
2021/05/31 08:51:37;;;;;;;13.02;8.73;;;;;;;25.39;39.01;102256.97;4946727;28;119711;-66
2021/05/31 08:54:06;;;;;;;14.90;8.50;;;;;;;25.41;38.63;102249.56;4945946;28;123893;-66
2021/05/31 08:56:34;;;;;;;16.85;9.20;;;;;;;25.43;38.33;102242.13;4948358;28;122632;-67
2021/05/31 08:59:03;;;;;;;19.13;9.15;;;;;;;25.47;38.94;102241.84;4948142;28;119745;-67
2021/05/31 09:01:30;;;;;;;15.18;9.48;;;;;;;25.57;38.93;102242.78;4950623;28;119237;-67
2021/05/31 09:03:58;;;;;;;14.65;10.10;;;;;;;25.65;38.95;102240.25;4947948;28;124253;-67
2021/05/31 09:06:27;;;;;;;17.23;9.52;;;;;;;25.72;38.05;102241.44;4947471;28;124767;-67
2021/05/31 09:08:59;;;;;;;13.93;8.07;;;;;;;25.75;37.60;102235.75;4947579;28;119301;-67
2021/05/31 09:11:28;;;;;;;11.30;7.82;;;;;;;25.77;37.42;102236.47;4946909;28;118570;-68
2021/05/31 09:13:57;;;;;;;9.90;6.65;;;;;;;25.78;36.42;102230.03;4949859;28;123828;-67
2021/05/31 09:16:26;;;;;;;8.00;5.47;;;;;;;25.83;36.57;102232.38;4947427;28;124719;-68
2021/05/31 09:19:00;;;;;;;11.38;5.82;;;;;;;25.90;36.81;102243.53;4946808;28;119681;-68
2021/05/31 09:21:30;;;;;;;10.98;7.15;;;;;;;25.96;36.62;102232.19;4948841;28;118865;-68
2021/05/31 09:24:00;;;;;;;11.10;6.93;;;;;;;26.01;36.17;102232.59;4946698;28;123820;-68
2021/05/31 09:26:44;;;;;;;10.20;7.05;;;;;;;26.07;36.82;102229.38;4948090;28;124183;-68
2021/05/31 09:29:11;;;;;;;8.63;6.10;;;;;;;26.14;36.19;102219.66;4940944;28;120283;-68
2021/05/31 09:31:38;;;;;;;11.40;6.20;;;;;;;26.20;35.91;102224.56;4947865;28;120370;-67
2021/05/31 09:34:08;;;;;;;12.25;6.35;;;;;;;26.23;36.09;102224.25;4948757;28;123348;-68
2021/05/31 09:36:53;;;;;;;12.98;6.82;;;;;;;26.36;36.28;102223.16;4949482;28;124119;-67
2021/05/31 09:39:29;;;;;;;11.40;6.85;;;;;;;26.45;35.29;102222.31;4943404;28;119733;-68
2021/05/31 09:42:06;;;;;;;10.15;5.80;;;;;;;26.53;34.84;102219.75;4938381;28;119002;-69
2021/05/31 09:44:33;;;;;;;10.73;7.43;;;;;;;26.59;35.59;102218.34;4947760;28;124167;-68
2021/05/31 09:47:00;;;;;;;9.88;6.65;;;;;;;26.63;35.58;102213.50;4948738;28;123795;-68
2021/05/31 09:49:28;;;;;;;11.55;6.88;;;;;;;26.68;35.35;102211.25;4943270;28;119365;-68
2021/05/31 09:52:00;;;;;;;12.15;7.20;;;;;;;26.71;34.82;102205.50;4950128;28;120455;-68
2021/05/31 09:54:44;;;;;;;10.30;7.65;;;;;;;26.72;35.01;102207.22;4946715;28;124195;-68
2021/05/31 09:57:30;;;;;;;17.58;9.30;;;;;;;26.69;34.49;102213.81;4948191;28;124031;-67
2021/05/31 10:00:03;;;;;;;12.80;7.70;;;;;;;26.68;35.09;102212.09;4950465;28;119765;-68
2021/05/31 10:10:32;;;;;;;10.43;7.65;;;;;;;26.75;34.95;102193.38;4949017;28;119293;-68
2021/05/31 10:13:00;;;;;;;10.73;7.55;;;;;;;26.84;35.90;102189.75;4947707;28;119500;-67
2021/05/31 10:15:31;;;;;;;11.02;7.13;;;;;;;26.90;34.65;102191.94;4948695;28;124297;-68
2021/05/31 10:18:00;;;;;;;13.93;9.10;;;;;;;26.94;34.99;102196.06;4949406;28;123911;-68
2021/05/31 10:20:29;;;;;;;13.27;9.07;;;;;;;26.93;34.91;102188.06;4945690;28;120957;-69
2021/05/31 10:23:02;;;;;;;13.10;8.05;;;;;;;26.88;34.85;102196.66;4948083;28;119939;-68
2021/05/31 10:25:31;;;;;;;11.73;8.18;;;;;;;26.88;34.61;102191.22;4943785;28;124191;-68
2021/05/31 10:28:09;;;;;;;13.63;8.23;;;;;;;26.88;34.67;102191.22;4946303;28;124485;-68
2021/05/31 10:30:44;;;;;;;13.85;8.48;;;;;;;26.95;35.05;102192.34;4946869;28;119389;-68
2021/05/31 10:33:21;;;;;;;11.52;8.57;;;;;;;27.02;34.63;102186.34;4949101;28;119089;-68
2021/05/31 10:35:50;;;;;;;11.35;7.75;;;;;;;27.06;34.70;102182.31;4949371;28;124398;-68
2021/05/31 10:38:23;;;;;;;9.80;7.93;;;;;;;27.05;34.08;102186.03;4950367;28;124492;-67
2021/05/31 10:40:52;;;;;;;11.27;8.30;;;;;;;27.04;34.44;102181.63;4951713;28;119401;-68
2021/05/31 10:43:23;;;;;;;10.55;6.72;;;;;;;27.03;34.18;102177.16;4949947;28;118888;-67
2021/05/31 10:46:02;;;;;;;13.18;7.50;;;;;;;27.09;34.27;102176.63;4951161;28;123865;-67
2021/05/31 10:48:39;;;;;;;9.20;6.30;;;;;;;27.19;33.84;102163.84;4945415;28;124284;-67
2021/05/31 10:51:13;;;;;;;9.73;5.88;;;;;;;27.21;32.83;102164.56;4948534;28;119220;-67
2021/05/31 10:53:40;;;;;;;8.75;5.85;;;;;;;27.26;33.24;102162.28;4949116;28;119171;-67
2021/05/31 10:56:28;;;;;;;12.30;7.60;;;;;;;27.31;34.01;102162.72;4946723;28;124087;-67
2021/05/31 10:58:58;;;;;;;11.95;7.50;;;;;;;27.34;33.31;102165.13;4945455;28;124169;-67
2021/05/31 11:01:25;;;;;;;11.52;6.93;;;;;;;27.32;33.77;102163.56;4949074;28;119513;-68
2021/05/31 11:04:00;;;;;;;8.15;6.38;;;;;;;27.32;33.31;102161.69;4948211;28;119928;-67
2021/05/31 11:06:30;;;;;;;8.70;6.23;;;;;;;27.28;32.92;102160.28;4951321;28;124579;-67
2021/05/31 11:09:04;;;;;;;9.15;6.00;;;;;;;27.26;32.92;102166.88;4963371;28;125345;-67
2021/05/31 11:11:38;;;;;;;11.27;5.68;;;;;;;27.25;32.46;102149.69;4949557;28;120327;-67
2021/05/31 11:14:06;;;;;;;8.80;5.57;;;;;;;27.25;33.27;102154.25;4949098;28;119949;-67
2021/05/31 11:16:35;;;;;;;8.32;4.78;;;;;;;27.27;33.24;102158.53;4948843;28;124059;-67
2021/05/31 11:19:06;;;;;;;7.70;5.30;;;;;;;27.33;32.84;102152.53;4946872;28;122683;-67
2021/05/31 11:21:42;;;;;;;8.20;4.85;;;;;;;27.37;33.17;102153.97;4949037;28;119288;-68
2021/05/31 11:24:12;;;;;;;6.75;5.25;;;;;;;27.44;32.30;102153.34;4949644;28;119060;-68
2021/05/31 11:26:42;;;;;;;8.93;5.60;;;;;;;27.43;32.31;102147.06;4950272;28;124863;-67
2021/05/31 11:29:11;;;;;;;9.43;5.75;;;;;;;27.40;31.96;102146.50;4950089;28;122761;-67